createdAt,value
2019-03-02T00:01:45.807Z,8.50
2019-03-02T00:04:12.612Z,8.70
2019-03-02T00:06:40.528Z,8.80
2019-03-02T00:09:08.518Z,8.60
2019-03-02T00:11:36.307Z,8.60
2019-03-02T00:14:04.337Z,8.60
2019-03-02T00:16:32.394Z,8.80
2019-03-02T00:19:02.906Z,8.90
2019-03-02T00:21:31.410Z,8.80
2019-03-02T00:23:59.983Z,9.00
2019-03-02T00:26:29.674Z,8.70
2019-03-02T00:28:58.988Z,9.20
2019-03-02T00:31:29.799Z,9.10
2019-03-02T00:34:00.083Z,9.10
2019-03-02T00:36:28.258Z,9.00
2019-03-02T00:38:58.295Z,9.30
2019-03-02T00:41:26.674Z,9.30
2019-03-02T00:43:54.744Z,9.00
2019-03-02T00:46:23.869Z,9.30
2019-03-02T00:48:52.117Z,9.20
2019-03-02T00:51:20.020Z,9.30
2019-03-02T00:53:48.171Z,9.40
2019-03-02T00:56:16.471Z,9.10
2019-03-02T00:58:46.139Z,9.20
2019-03-02T01:01:15.520Z,9.50
2019-03-02T01:03:43.502Z,9.40
2019-03-02T01:06:12.728Z,9.20
2019-03-02T01:08:41.337Z,9.20
2019-03-02T01:11:09.780Z,9.20
2019-03-02T01:13:37.569Z,9.10
2019-03-02T01:16:07.507Z,9.10
2019-03-02T01:18:38.714Z,9.30
2019-03-02T01:21:06.404Z,9.20
2019-03-02T01:23:34.443Z,9.00
2019-03-02T01:26:02.286Z,9.20
2019-03-02T01:28:30.296Z,9.20
2019-03-02T01:30:58.260Z,9.40
2019-03-02T01:33:28.556Z,9.30
2019-03-02T01:35:56.908Z,9.10
2019-03-02T01:38:25.098Z,9.20
2019-03-02T01:40:53.105Z,9.30
2019-03-02T01:43:22.989Z,9.20
2019-03-02T01:45:50.832Z,9.20
2019-03-02T01:48:18.757Z,9.60
2019-03-02T01:50:47.777Z,9.60
2019-03-02T01:53:16.483Z,9.00
2019-03-02T01:55:44.349Z,9.30
2019-03-02T01:58:12.601Z,9.50
2019-03-02T02:00:40.629Z,9.20
2019-03-02T02:03:12.030Z,9.10
2019-03-02T02:05:38.647Z,9.10
2019-03-02T02:08:06.759Z,9.10
2019-03-02T02:10:34.932Z,9.00
2019-03-02T02:13:06.236Z,9.40
2019-03-02T02:15:33.297Z,9.20
2019-03-02T02:18:01.360Z,9.00
2019-03-02T02:20:30.853Z,9.30
2019-03-02T02:22:59.248Z,8.60
2019-03-02T02:25:27.292Z,9.30
2019-03-02T02:27:57.821Z,9.20
2019-03-02T02:30:27.034Z,9.30
2019-03-02T02:33:02.786Z,9.20
2019-03-02T02:35:25.676Z,9.20
2019-03-02T02:37:55.189Z,9.20
2019-03-02T02:40:23.071Z,9.00
2019-03-02T02:42:50.867Z,9.20
2019-03-02T02:45:19.166Z,9.20
2019-03-02T02:47:52.372Z,9.10
2019-03-02T02:50:16.783Z,9.20
2019-03-02T02:52:44.883Z,9.30
2019-03-02T02:55:14.576Z,9.20
2019-03-02T02:57:42.359Z,9.20
2019-03-02T03:00:21.752Z,9.30
2019-03-02T03:02:49.776Z,9.20
2019-03-02T03:05:17.857Z,9.10
2019-03-02T03:07:51.984Z,9.30
2019-03-02T03:10:44.136Z,9.30
2019-03-02T03:13:12.059Z,9.20
2019-03-02T03:15:47.717Z,9.30
2019-03-02T03:18:15.714Z,9.20
2019-03-02T03:20:47.805Z,9.20
2019-03-02T03:23:13.423Z,9.20
2019-03-02T03:25:41.439Z,9.20
2019-03-02T03:28:09.421Z,8.90
2019-03-02T03:30:39.747Z,9.20
2019-03-02T03:33:06.932Z,9.20
2019-03-02T03:35:34.986Z,9.00
2019-03-02T03:38:02.773Z,9.20
2019-03-02T03:40:30.558Z,8.80
2019-03-02T03:43:03.102Z,8.70
2019-03-02T03:45:28.871Z,9.00
2019-03-02T03:47:56.850Z,9.20
2019-03-02T03:50:24.860Z,9.20
2019-03-02T03:52:52.766Z,9.10
2019-03-02T03:55:25.099Z,9.10
2019-03-02T03:57:55.322Z,9.20
2019-03-02T04:00:20.188Z,9.10
2019-03-02T04:02:47.964Z,9.20
2019-03-02T04:05:15.879Z,8.90
2019-03-02T04:07:48.520Z,8.80
2019-03-02T04:10:14.563Z,8.70
2019-03-02T04:12:42.428Z,9.20
2019-03-02T04:15:10.431Z,8.70
2019-03-02T04:17:39.420Z,9.10
2019-03-02T04:20:25.191Z,9.20
2019-03-02T04:22:54.029Z,9.20
2019-03-02T04:25:22.003Z,9.30
2019-03-02T04:27:54.272Z,9.20
2019-03-02T04:30:21.218Z,9.00
2019-03-02T04:32:49.160Z,8.90
2019-03-02T04:35:16.928Z,9.00
2019-03-02T04:37:44.697Z,9.20
2019-03-02T04:40:12.582Z,9.20
2019-03-02T04:42:40.341Z,9.30
2019-03-02T04:45:08.389Z,9.00
2019-03-02T04:47:36.298Z,9.20
2019-03-02T04:50:04.843Z,9.20
2019-03-02T04:52:32.702Z,9.70
2019-03-02T04:55:00.633Z,9.10
2019-03-02T04:57:29.311Z,9.50
2019-03-02T04:59:57.674Z,9.50
2019-03-02T05:02:25.780Z,9.60
2019-03-02T05:04:53.549Z,9.60
2019-03-02T05:07:21.514Z,9.50
2019-03-02T05:09:51.991Z,9.60
2019-03-02T05:12:20.263Z,9.40
2019-03-02T05:14:48.406Z,9.60
2019-03-02T05:17:16.388Z,9.60
2019-03-02T05:19:44.184Z,9.40
2019-03-02T05:22:12.119Z,9.70
2019-03-02T05:24:40.584Z,9.60
2019-03-02T05:27:09.544Z,9.60
2019-03-02T05:29:37.477Z,9.50
2019-03-02T05:32:05.267Z,9.50
2019-03-02T05:34:36.532Z,9.50
2019-03-02T05:37:03.897Z,9.20
2019-03-02T05:39:32.023Z,9.60
2019-03-02T05:42:01.747Z,9.50
2019-03-02T05:44:29.534Z,9.70
2019-03-02T05:46:57.775Z,9.20
2019-03-02T05:49:27.207Z,9.20
2019-03-02T05:51:55.181Z,9.20
2019-03-02T05:54:23.251Z,9.50
2019-03-02T05:56:51.036Z,9.70
2019-03-02T05:59:18.815Z,9.50
2019-03-02T06:01:46.863Z,9.70
2019-03-02T06:04:14.935Z,9.70
2019-03-02T06:06:42.707Z,9.70
2019-03-02T06:09:13.896Z,9.60
2019-03-02T06:11:41.735Z,9.40
2019-03-02T06:14:09.498Z,9.80
2019-03-02T06:16:37.260Z,9.60
2019-03-02T06:19:05.238Z,9.60
2019-03-02T06:21:33.221Z,9.50
2019-03-02T06:24:01.617Z,9.40
2019-03-02T06:26:31.715Z,9.70
2019-03-02T06:29:00.552Z,9.50
2019-03-02T06:31:28.621Z,9.10
2019-03-02T06:33:56.378Z,9.20
2019-03-02T06:36:24.156Z,9.50
2019-03-02T06:38:52.102Z,9.70
2019-03-02T06:41:19.873Z,9.60
2019-03-02T06:43:49.467Z,9.70
2019-03-02T06:46:19.923Z,9.40
2019-03-02T06:48:48.451Z,9.60
2019-03-02T06:51:16.460Z,9.40
2019-03-02T06:53:44.262Z,9.60
2019-03-02T06:56:12.215Z,9.60
2019-03-02T06:58:40.101Z,9.60
2019-03-02T07:01:07.875Z,9.60
2019-03-02T07:03:35.827Z,9.60
2019-03-02T07:06:03.626Z,9.70
2019-03-02T07:08:32.713Z,9.90
2019-03-02T07:11:01.204Z,9.90
2019-03-02T07:13:28.984Z,9.50
2019-03-02T07:15:58.765Z,9.90
2019-03-02T07:18:52.729Z,9.80
2019-03-02T07:21:20.697Z,10.00
2019-03-02T07:23:48.479Z,10.00
2019-03-02T07:26:19.723Z,10.10
2019-03-02T07:28:46.254Z,9.90
2019-03-02T07:31:14.043Z,10.30
2019-03-02T07:33:42.011Z,10.30
2019-03-02T07:36:09.823Z,10.20
2019-03-02T07:38:37.631Z,10.10
2019-03-02T07:41:07.597Z,10.40
2019-03-02T07:43:35.215Z,10.50
2019-03-02T07:46:02.999Z,10.60
2019-03-02T07:48:33.066Z,10.50
2019-03-02T07:51:04.702Z,10.70
2019-03-02T07:53:30.732Z,10.50
2019-03-02T07:56:00.519Z,10.40
2019-03-02T07:58:28.305Z,11.10
2019-03-02T08:00:56.104Z,10.90
2019-03-02T08:03:24.031Z,11.50
2019-03-02T08:05:51.967Z,11.30
2019-03-02T08:08:20.028Z,11.70
2019-03-02T08:10:47.947Z,12.00
2019-03-02T08:13:15.793Z,11.90
2019-03-02T08:15:43.793Z,11.80
2019-03-02T08:18:11.879Z,11.90
2019-03-02T08:20:39.699Z,12.00
2019-03-02T08:23:07.930Z,11.80
2019-03-02T08:25:35.893Z,12.00
2019-03-02T08:28:06.769Z,12.00
2019-03-02T08:30:34.209Z,12.60
2019-03-02T08:33:02.178Z,12.50
2019-03-02T08:35:30.140Z,12.30
2019-03-02T08:37:57.930Z,12.70
2019-03-02T08:40:25.718Z,12.70
2019-03-02T08:42:53.660Z,12.10
2019-03-02T08:45:21.407Z,12.60
2019-03-02T08:47:49.226Z,12.20
2019-03-02T08:50:17.754Z,12.60
2019-03-02T08:52:46.824Z,12.00
2019-03-02T08:55:15.111Z,11.90
2019-03-02T08:57:43.136Z,12.00
2019-03-02T09:00:16.084Z,12.00
2019-03-02T09:02:43.976Z,12.00
2019-03-02T09:05:12.120Z,11.40
2019-03-02T09:07:41.735Z,11.70
2019-03-02T09:10:13.597Z,11.50
2019-03-02T09:12:40.587Z,11.90
2019-03-02T09:15:13.334Z,11.90
2019-03-02T09:17:41.357Z,12.00
2019-03-02T09:20:10.515Z,12.40
2019-03-02T09:22:40.438Z,12.50
2019-03-02T09:25:11.073Z,12.40
2019-03-02T09:27:38.892Z,12.50
2019-03-02T09:30:10.306Z,12.60
2019-03-02T09:32:38.246Z,12.50
2019-03-02T09:35:07.242Z,12.50
2019-03-02T09:37:35.021Z,13.10
2019-03-02T09:40:03.098Z,13.00
2019-03-02T09:42:37.527Z,13.20
2019-03-02T09:45:00.680Z,13.60
2019-03-02T09:47:28.491Z,13.70
2019-03-02T09:49:56.467Z,14.00
2019-03-02T09:52:24.441Z,13.90
2019-03-02T09:54:53.644Z,13.80
2019-03-02T09:57:21.616Z,14.10
2019-03-02T09:59:49.745Z,14.30
2019-03-02T10:02:17.538Z,14.00
2019-03-02T10:04:45.537Z,14.00
2019-03-02T10:07:13.441Z,14.10
2019-03-02T10:09:41.382Z,14.60
2019-03-02T10:12:10.058Z,14.70
2019-03-02T10:14:38.852Z,14.30
2019-03-02T10:17:06.769Z,14.00
2019-03-02T10:19:34.758Z,14.70
2019-03-02T10:22:02.665Z,14.40
2019-03-02T10:24:30.668Z,14.10
2019-03-02T10:26:58.633Z,13.90
2019-03-02T10:29:26.444Z,13.80
2019-03-02T10:31:54.396Z,14.30
2019-03-02T10:34:22.457Z,14.40
2019-03-02T10:36:50.245Z,14.70
2019-03-02T10:39:18.037Z,14.40
2019-03-02T10:41:45.972Z,14.20
2019-03-02T10:44:13.737Z,14.50
2019-03-02T10:46:41.633Z,14.30
2019-03-02T10:49:10.201Z,14.00
2019-03-02T10:51:39.286Z,14.70
2019-03-02T10:54:07.161Z,14.60
2019-03-02T10:56:36.499Z,14.70
2019-03-02T10:59:04.443Z,14.50
2019-03-02T11:01:32.400Z,14.60
2019-03-02T11:04:08.347Z,14.40
2019-03-02T11:06:51.793Z,14.40
2019-03-02T11:09:32.929Z,14.70
2019-03-02T11:12:27.488Z,14.60
2019-03-02T11:15:21.936Z,14.80
2019-03-02T11:18:02.074Z,15.40
2019-03-02T11:20:42.163Z,15.20
2019-03-02T11:23:19.656Z,15.40
2019-03-02T11:25:55.914Z,15.00
2019-03-02T11:28:32.765Z,14.90
2019-03-02T11:31:35.540Z,14.10
2019-03-02T11:34:41.259Z,14.40
2019-03-02T11:37:34.460Z,14.40
2019-03-02T11:40:15.886Z,14.70
2019-03-02T11:43:05.943Z,14.70
2019-03-02T11:45:45.766Z,15.10
2019-03-02T11:48:31.980Z,15.20
2019-03-02T11:51:07.231Z,15.40
2019-03-02T11:54:06.513Z,15.50
2019-03-02T11:56:52.608Z,15.60
2019-03-02T11:59:42.112Z,15.70
2019-03-02T12:02:27.540Z,15.30
2019-03-02T12:05:14.251Z,14.70
2019-03-02T12:08:01.780Z,14.60
2019-03-02T12:10:55.031Z,14.90
2019-03-02T12:13:34.976Z,14.70
2019-03-02T12:16:26.495Z,14.70
2019-03-02T12:19:13.880Z,14.60
2019-03-02T12:21:58.831Z,14.60
2019-03-02T12:24:54.700Z,14.70
2019-03-02T12:27:47.669Z,14.50
2019-03-02T12:30:48.832Z,14.80
2019-03-02T12:33:26.644Z,14.70
2019-03-02T12:36:07.497Z,14.00
2019-03-02T12:38:53.691Z,14.00
2019-03-02T12:41:43.862Z,14.40
2019-03-02T12:44:46.421Z,14.10
2019-03-02T12:47:36.708Z,14.00
2019-03-02T12:50:25.462Z,13.80
2019-03-02T12:52:59.062Z,13.50
2019-03-02T12:55:45.453Z,13.20
2019-03-02T12:58:26.678Z,13.10
2019-03-02T13:01:05.958Z,13.00
2019-03-02T13:03:53.466Z,13.00
2019-03-02T13:06:40.230Z,13.80
2019-03-02T13:09:23.398Z,13.80
2019-03-02T13:12:14.019Z,14.20
2019-03-02T13:15:10.927Z,14.20
2019-03-02T13:18:00.925Z,14.00
2019-03-02T13:20:54.365Z,14.00
2019-03-02T13:23:52.846Z,14.00
2019-03-02T13:26:31.123Z,13.50
2019-03-02T13:29:17.211Z,13.60
2019-03-02T13:32:04.603Z,13.40
2019-03-02T13:34:54.914Z,13.20
2019-03-02T13:37:42.440Z,13.00
2019-03-02T13:40:45.400Z,13.80
2019-03-02T13:43:37.993Z,13.60
2019-03-02T13:46:13.919Z,12.90
2019-03-02T13:49:10.111Z,12.60
2019-03-02T13:52:07.511Z,13.00
2019-03-02T13:54:48.645Z,13.50
2019-03-02T13:57:43.123Z,13.60
2019-03-02T14:00:40.693Z,13.80
2019-03-02T14:03:24.818Z,13.40
2019-03-02T14:06:14.117Z,13.50
2019-03-02T14:09:05.738Z,13.20
2019-03-02T14:11:52.153Z,13.00
2019-03-02T14:14:32.343Z,13.10
2019-03-02T14:17:19.763Z,13.30
2019-03-02T14:20:07.661Z,13.20
2019-03-02T14:23:10.342Z,13.40
2019-03-02T14:25:56.130Z,13.40
2019-03-02T14:28:34.784Z,13.60
2019-03-02T14:31:19.820Z,13.20
2019-03-02T14:34:11.980Z,12.90
2019-03-02T14:36:59.586Z,13.00
2019-03-02T14:39:38.077Z,12.60
2019-03-02T14:42:19.550Z,12.60
2019-03-02T14:45:12.675Z,12.90
2019-03-02T14:47:58.760Z,12.50
2019-03-02T14:50:52.367Z,12.50
2019-03-02T14:53:52.474Z,12.40
2019-03-02T14:56:40.344Z,12.40
2019-03-02T14:59:27.874Z,12.40
2019-03-02T15:02:20.106Z,12.50
2019-03-02T15:05:16.159Z,12.20
2019-03-02T15:08:05.855Z,12.20
2019-03-02T15:10:53.433Z,11.60
2019-03-02T15:13:49.787Z,12.20
2019-03-02T15:16:43.127Z,12.00
2019-03-02T15:19:19.316Z,11.80
2019-03-02T15:22:05.536Z,11.80
2019-03-02T15:24:56.017Z,11.80
2019-03-02T15:27:39.530Z,11.70
2019-03-02T15:30:44.164Z,11.50
2019-03-02T15:33:37.746Z,11.90
2019-03-02T15:36:24.652Z,11.70
2019-03-02T15:39:16.460Z,11.50
2019-03-02T15:42:11.954Z,11.80
2019-03-02T15:44:58.423Z,11.80
2019-03-02T15:47:36.146Z,11.70
2019-03-02T15:50:13.429Z,12.00
2019-03-02T15:53:16.109Z,11.80
2019-03-02T15:56:23.423Z,12.00
2019-03-02T15:59:20.591Z,12.10
2019-03-02T16:02:13.690Z,12.10
2019-03-02T16:05:11.127Z,11.90
2019-03-02T16:07:49.214Z,12.20
2019-03-02T16:10:40.170Z,12.00
2019-03-02T16:13:16.944Z,11.70
2019-03-02T16:16:03.356Z,11.80
2019-03-02T16:18:45.277Z,11.70
2019-03-02T16:21:27.743Z,11.80
2019-03-02T16:24:19.953Z,11.80
2019-03-02T16:27:07.223Z,12.10
2019-03-02T16:29:56.749Z,12.10
2019-03-02T16:32:55.376Z,12.20
2019-03-02T16:35:40.024Z,12.30
2019-03-02T16:38:21.977Z,11.90
2019-03-02T16:41:12.358Z,11.90
2019-03-02T16:44:03.144Z,11.80
2019-03-02T16:46:51.321Z,11.80
2019-03-02T16:49:41.773Z,11.80
2019-03-02T16:52:27.682Z,11.60
2019-03-02T16:55:12.725Z,11.70
2019-03-02T16:58:05.990Z,12.10
2019-03-02T17:00:58.073Z,11.80
2019-03-02T17:03:45.485Z,12.10
2019-03-02T17:06:25.662Z,11.90
2019-03-02T17:09:07.865Z,12.00
2019-03-02T17:12:15.900Z,11.90
2019-03-02T17:15:02.230Z,12.00
2019-03-02T17:17:45.186Z,11.80
2019-03-02T17:20:22.868Z,11.80
2019-03-02T17:23:21.174Z,11.70
2019-03-02T17:25:58.094Z,12.00
2019-03-02T17:28:45.371Z,11.70
2019-03-02T17:31:36.231Z,12.10
2019-03-02T17:34:20.874Z,11.80
2019-03-02T17:37:07.451Z,11.80
2019-03-02T17:39:51.722Z,12.00
2019-03-02T17:42:48.337Z,11.80
2019-03-02T17:45:27.086Z,12.10
2019-03-02T17:48:20.630Z,12.20
2019-03-02T17:51:01.692Z,11.90
2019-03-02T17:54:07.614Z,11.80
2019-03-02T17:57:09.862Z,12.00
2019-03-02T18:00:06.754Z,11.90
2019-03-02T18:02:54.560Z,12.00
2019-03-02T18:05:47.542Z,11.90
2019-03-02T18:08:23.753Z,12.10
2019-03-02T18:11:14.784Z,12.00
2019-03-02T18:14:05.410Z,11.70
2019-03-02T18:17:08.288Z,11.80
2019-03-02T18:19:39.625Z,11.90
2019-03-02T18:22:06.425Z,11.70
2019-03-02T18:24:36.569Z,11.70
2019-03-02T18:27:04.697Z,11.40
2019-03-02T18:29:32.650Z,11.70
2019-03-02T18:32:02.209Z,11.40
2019-03-02T18:34:30.454Z,12.00
2019-03-02T18:36:58.392Z,11.70
2019-03-02T18:39:26.646Z,11.50
2019-03-02T18:41:54.871Z,11.60
2019-03-02T18:44:22.881Z,11.60
2019-03-02T18:46:53.159Z,11.40
2019-03-02T18:49:47.519Z,11.60
2019-03-02T18:52:32.637Z,11.40
2019-03-02T18:55:01.668Z,11.60
2019-03-02T18:57:29.450Z,11.60
2019-03-02T18:59:57.486Z,11.70
2019-03-02T19:02:25.258Z,11.50
2019-03-02T19:04:54.725Z,11.60
2019-03-02T19:07:22.665Z,11.70
2019-03-02T19:09:50.683Z,11.40
2019-03-02T19:12:18.600Z,11.60
2019-03-02T19:14:46.751Z,11.50
2019-03-02T19:17:14.593Z,11.50
2019-03-02T19:19:42.408Z,11.30
2019-03-02T19:22:10.347Z,11.60
2019-03-02T19:24:38.183Z,11.50
2019-03-02T19:27:06.003Z,11.60
2019-03-02T19:29:33.984Z,11.70
2019-03-02T19:32:01.782Z,11.30
2019-03-02T19:34:29.575Z,11.30
2019-03-02T19:36:57.681Z,11.10
2019-03-02T19:39:26.005Z,11.20
2019-03-02T19:41:54.161Z,11.20
2019-03-02T19:44:23.953Z,11.10
2019-03-02T19:46:51.751Z,11.00
2019-03-02T19:49:19.872Z,10.80
2019-03-02T19:51:47.981Z,10.50
2019-03-02T19:54:18.755Z,10.50
2019-03-02T19:56:46.624Z,10.60
2019-03-02T19:59:14.669Z,10.60
2019-03-02T20:01:48.537Z,10.70
2019-03-02T20:04:18.197Z,11.20
2019-03-02T20:06:46.017Z,10.90
2019-03-02T20:09:14.048Z,10.90
2019-03-02T20:11:42.006Z,10.60
2019-03-02T20:14:10.020Z,10.60
2019-03-02T20:16:37.804Z,11.00
2019-03-02T20:19:05.706Z,11.00
2019-03-02T20:21:33.513Z,11.30
2019-03-02T20:24:01.430Z,11.20
2019-03-02T20:26:29.220Z,11.00
2019-03-02T20:28:57.192Z,11.20
2019-03-02T20:31:25.165Z,10.90
2019-03-02T20:33:52.965Z,11.20
2019-03-02T20:36:21.015Z,11.20
2019-03-02T20:38:48.861Z,11.10
2019-03-02T20:41:16.872Z,11.20
2019-03-02T20:43:44.677Z,11.00
2019-03-02T20:46:12.478Z,11.00
2019-03-02T20:48:40.386Z,10.90
2019-03-02T20:51:08.200Z,11.10
2019-03-02T20:53:35.995Z,11.20
2019-03-02T20:56:03.984Z,10.60
2019-03-02T20:58:31.960Z,10.60
2019-03-02T21:00:59.750Z,10.60
2019-03-02T21:03:27.537Z,10.50
2019-03-02T21:05:55.462Z,10.50
2019-03-02T21:08:23.475Z,10.50
2019-03-02T21:10:51.288Z,10.40
2019-03-02T21:13:19.287Z,10.60
2019-03-02T21:15:47.272Z,10.70
2019-03-02T21:18:15.123Z,10.50
2019-03-02T21:20:43.517Z,10.30
2019-03-02T21:23:11.328Z,10.40
2019-03-02T21:25:39.133Z,10.70
2019-03-02T21:28:07.145Z,10.50
2019-03-02T21:30:35.051Z,10.50
2019-03-02T21:33:02.980Z,10.50
2019-03-02T21:35:30.801Z,10.60
2019-03-02T21:37:58.916Z,10.80
2019-03-02T21:40:26.756Z,10.60
2019-03-02T21:42:54.530Z,11.00
2019-03-02T21:45:22.735Z,11.20
2019-03-02T21:47:51.888Z,10.90
2019-03-02T21:50:23.114Z,11.20
2019-03-02T21:52:51.055Z,11.10
2019-03-02T21:55:18.953Z,11.20
2019-03-02T21:57:46.740Z,11.60
2019-03-02T22:00:21.377Z,11.20
2019-03-02T22:02:51.085Z,11.00
2019-03-02T22:05:18.847Z,11.10
2019-03-02T22:07:46.878Z,11.10
2019-03-02T22:10:31.413Z,11.10
2019-03-02T22:12:59.433Z,11.20
2019-03-02T22:15:27.236Z,11.30
2019-03-02T22:17:55.846Z,11.00
2019-03-02T22:20:23.840Z,11.30
2019-03-02T22:22:51.636Z,11.50
2019-03-02T22:25:19.459Z,11.10
2019-03-02T22:27:47.391Z,11.20
2019-03-02T22:30:18.462Z,11.00
2019-03-02T22:32:46.269Z,11.30
2019-03-02T22:35:15.691Z,11.20
2019-03-02T22:37:43.644Z,11.00
2019-03-02T22:40:16.607Z,11.00
2019-03-02T22:42:44.556Z,11.50
2019-03-02T22:45:14.044Z,11.30
2019-03-02T22:47:41.837Z,11.30
2019-03-02T22:50:16.102Z,11.30
2019-03-02T22:52:43.871Z,11.10
2019-03-02T22:55:13.633Z,11.20
2019-03-02T22:57:41.446Z,11.20
2019-03-02T23:01:03.357Z,11.10
2019-03-02T23:03:29.720Z,11.40
2019-03-02T23:05:59.451Z,11.50
2019-03-02T23:08:27.379Z,11.10
2019-03-02T23:10:55.272Z,11.60
2019-03-02T23:13:23.059Z,11.00
2019-03-02T23:15:50.990Z,11.50
2019-03-02T23:18:18.778Z,11.60
2019-03-02T23:20:46.815Z,11.50
2019-03-02T23:23:14.806Z,11.40
2019-03-02T23:25:42.714Z,11.60
2019-03-02T23:28:10.654Z,11.40
2019-03-02T23:30:38.540Z,11.40
2019-03-02T23:33:06.599Z,11.40
2019-03-02T23:35:34.414Z,11.40
2019-03-02T23:38:02.183Z,11.70
2019-03-02T23:40:30.107Z,11.50
2019-03-02T23:42:57.899Z,11.60
2019-03-02T23:45:25.856Z,11.60
2019-03-02T23:47:53.830Z,11.80
2019-03-02T23:50:21.613Z,11.40
2019-03-02T23:52:49.595Z,11.60
2019-03-02T23:55:17.540Z,12.10
2019-03-02T23:57:45.331Z,12.10
